createdAt,value
2023-03-06T00:01:30.283Z,7.20
2023-03-06T00:04:19.226Z,6.72
2023-03-06T00:07:07.703Z,7.13
2023-03-06T00:09:56.144Z,7.40
2023-03-06T00:12:44.638Z,7.95
2023-03-06T00:15:33.488Z,7.40
2023-03-06T00:18:23.381Z,7.37
2023-03-06T00:21:12.095Z,7.03
2023-03-06T00:24:00.567Z,6.60
2023-03-06T00:26:49.088Z,8.17
2023-03-06T00:29:37.934Z,5.97
2023-03-06T00:32:27.600Z,5.50
2023-03-06T00:35:18.009Z,5.75
2023-03-06T00:38:06.467Z,5.10
2023-03-06T00:40:55.253Z,6.70
2023-03-06T00:43:43.679Z,5.47
2023-03-06T00:46:32.168Z,5.53
2023-03-06T00:49:20.703Z,5.40
2023-03-06T00:52:10.700Z,6.68
2023-03-06T00:54:59.098Z,6.60
2023-03-06T00:57:47.572Z,5.68
2023-03-06T01:00:36.091Z,6.28
2023-03-06T01:03:24.568Z,6.00
2023-03-06T01:06:13.038Z,7.00
2023-03-06T01:09:02.910Z,6.20
2023-03-06T01:11:51.480Z,7.03
2023-03-06T01:14:39.894Z,7.32
2023-03-06T01:17:28.417Z,6.25
2023-03-06T01:20:18.444Z,7.50
2023-03-06T01:23:06.920Z,6.90
2023-03-06T01:25:56.801Z,7.18
2023-03-06T01:28:45.585Z,6.20
2023-03-06T01:31:34.271Z,6.32
2023-03-06T01:34:22.774Z,6.53
2023-03-06T01:37:11.284Z,6.00
2023-03-06T01:39:59.772Z,6.33
2023-03-06T01:42:51.693Z,6.10
2023-03-06T01:46:18.550Z,6.47
2023-03-06T01:49:12.210Z,6.25
2023-03-06T01:52:04.928Z,8.27
2023-03-06T01:54:58.247Z,6.20
2023-03-06T01:57:50.069Z,7.63
2023-03-06T02:00:40.018Z,6.80
2023-03-06T02:03:29.906Z,6.80
2023-03-06T02:06:21.753Z,6.55
2023-03-06T02:09:11.036Z,7.78
2023-03-06T02:11:59.606Z,6.65
2023-03-06T02:14:48.770Z,6.13
2023-03-06T02:17:38.897Z,6.28
2023-03-06T02:20:33.300Z,6.05
2023-03-06T02:23:31.224Z,6.55
2023-03-06T02:26:21.709Z,7.75
2023-03-06T02:29:10.874Z,6.22
2023-03-06T02:31:59.414Z,6.70
2023-03-06T02:34:55.114Z,7.88
2023-03-06T02:37:43.615Z,7.07
2023-03-06T02:40:32.367Z,8.10
2023-03-06T02:43:26.681Z,8.20
2023-03-06T02:46:15.284Z,8.05
2023-03-06T02:49:03.808Z,8.50
2023-03-06T02:51:52.339Z,7.75
2023-03-06T02:54:40.928Z,6.60
2023-03-06T02:57:29.362Z,8.50
2023-03-06T03:00:20.780Z,8.88
2023-03-06T03:03:09.616Z,9.05
2023-03-06T03:05:58.121Z,8.30
2023-03-06T03:08:46.685Z,9.37
2023-03-06T03:11:35.245Z,8.48
2023-03-06T03:14:25.657Z,8.87
2023-03-06T03:17:15.778Z,8.20
2023-03-06T03:20:05.346Z,9.35
2023-03-06T03:22:55.964Z,7.97
2023-03-06T03:25:44.412Z,8.55
2023-03-06T03:28:32.884Z,10.32
2023-03-06T03:31:21.438Z,10.55
2023-03-06T03:34:11.404Z,9.88
2023-03-06T03:36:59.960Z,9.15
2023-03-06T03:39:48.432Z,9.10
2023-03-06T03:42:36.902Z,9.07
2023-03-06T03:45:25.689Z,9.50
2023-03-06T03:48:14.482Z,10.70
2023-03-06T03:51:08.415Z,10.40
2023-03-06T03:53:58.110Z,9.40
2023-03-06T03:56:46.848Z,9.88
2023-03-06T03:59:35.681Z,10.57
2023-03-06T04:02:25.388Z,9.65
2023-03-06T04:05:15.711Z,9.43
2023-03-06T04:08:06.094Z,10.13
2023-03-06T04:10:55.219Z,11.30
2023-03-06T04:13:43.796Z,9.50
2023-03-06T04:16:32.342Z,9.63
2023-03-06T04:19:20.946Z,8.68
2023-03-06T04:22:09.435Z,7.70
2023-03-06T04:24:59.274Z,8.73
2023-03-06T04:27:47.811Z,8.50
2023-03-06T04:30:36.557Z,11.33
2023-03-06T04:33:25.284Z,9.77
2023-03-06T04:36:25.341Z,11.10
2023-03-06T04:39:14.064Z,9.43
2023-03-06T04:42:03.915Z,10.70
2023-03-06T04:44:52.373Z,9.77
2023-03-06T04:47:40.904Z,10.00
2023-03-06T04:50:32.422Z,10.07
2023-03-06T04:53:24.670Z,11.13
2023-03-06T04:56:13.381Z,10.63
2023-03-06T04:59:03.991Z,10.90
2023-03-06T05:01:52.584Z,11.35
2023-03-06T05:04:41.172Z,9.80
2023-03-06T05:07:29.823Z,10.57
2023-03-06T05:10:19.354Z,8.15
2023-03-06T05:13:07.954Z,10.55
2023-03-06T05:16:03.452Z,9.38
2023-03-06T05:18:52.024Z,9.63
2023-03-06T05:21:40.497Z,9.63
2023-03-06T05:24:29.055Z,9.13
2023-03-06T05:27:17.483Z,10.40
2023-03-06T05:30:07.171Z,10.05
2023-03-06T05:32:57.006Z,10.85
2023-03-06T05:35:47.719Z,8.60
2023-03-06T05:38:36.288Z,9.25
2023-03-06T05:41:24.757Z,7.90
2023-03-06T05:44:13.269Z,10.02
2023-03-06T05:47:01.967Z,9.37
2023-03-06T05:49:51.931Z,9.57
2023-03-06T05:52:40.845Z,8.60
2023-03-06T05:55:29.373Z,10.75
2023-03-06T05:58:17.880Z,8.48
2023-03-06T06:01:11.313Z,9.82
2023-03-06T06:03:59.815Z,10.35
2023-03-06T06:06:53.087Z,8.65
2023-03-06T06:09:41.832Z,8.00
2023-03-06T06:12:30.624Z,7.83
2023-03-06T06:15:19.239Z,10.15
2023-03-06T06:18:07.721Z,8.43
2023-03-06T06:20:56.263Z,8.07
2023-03-06T06:23:46.299Z,10.02
2023-03-06T06:26:34.794Z,10.00
2023-03-06T06:29:24.645Z,10.32
2023-03-06T06:32:13.242Z,10.13
2023-03-06T06:35:01.912Z,9.52
2023-03-06T06:37:50.378Z,10.90
2023-03-06T06:40:40.354Z,10.07
2023-03-06T06:43:29.776Z,8.88
2023-03-06T06:46:56.230Z,10.60
2023-03-06T06:49:26.966Z,8.43
2023-03-06T06:52:16.220Z,9.27
2023-03-06T06:55:04.915Z,9.40
2023-03-06T06:57:54.934Z,9.48
2023-03-06T07:00:43.372Z,10.23
2023-03-06T07:03:31.937Z,9.38
2023-03-06T07:06:20.440Z,9.97
2023-03-06T07:09:08.924Z,9.57
2023-03-06T07:11:57.454Z,9.85
2023-03-06T07:14:48.382Z,9.45
2023-03-06T07:17:36.904Z,10.50
2023-03-06T07:20:25.413Z,9.13
2023-03-06T07:23:14.652Z,8.13
2023-03-06T07:26:03.285Z,9.00
2023-03-06T07:28:53.829Z,9.43
2023-03-06T07:31:44.173Z,23.80
2023-03-06T07:34:32.971Z,21.83
2023-03-06T07:37:22.260Z,42.95
2023-03-06T07:40:12.847Z,11.93
2023-03-06T07:43:16.764Z,8.82
2023-03-06T07:46:07.061Z,9.00
2023-03-06T07:48:58.255Z,7.35
2023-03-06T07:51:46.728Z,9.18
2023-03-06T07:54:35.282Z,8.27
2023-03-06T07:57:23.765Z,8.02
2023-03-06T08:00:14.939Z,8.38
2023-03-06T08:03:03.767Z,8.27
2023-03-06T08:05:53.676Z,7.38
2023-03-06T08:08:44.447Z,7.75
2023-03-06T08:11:33.307Z,8.40
2023-03-06T08:14:22.412Z,7.22
2023-03-06T08:17:10.880Z,8.82
2023-03-06T08:19:59.547Z,7.32
2023-03-06T08:22:49.965Z,8.55
2023-03-06T08:25:38.485Z,8.00
2023-03-06T08:28:27.257Z,7.90
2023-03-06T08:31:24.028Z,7.70
2023-03-06T08:34:18.590Z,7.20
2023-03-06T08:37:07.238Z,7.65
2023-03-06T08:39:57.320Z,8.05
2023-03-06T08:42:45.829Z,6.30
2023-03-06T08:45:34.593Z,8.07
2023-03-06T08:48:23.384Z,6.50
2023-03-06T08:51:12.212Z,7.27
2023-03-06T08:54:00.942Z,7.00
2023-03-06T08:56:51.103Z,7.90
2023-03-06T08:59:39.921Z,7.38
2023-03-06T09:02:28.827Z,8.63
2023-03-06T09:05:17.735Z,6.20
2023-03-06T09:08:06.522Z,6.72
2023-03-06T09:10:55.372Z,6.78
2023-03-06T09:13:45.584Z,7.22
2023-03-06T09:16:34.379Z,6.10
2023-03-06T09:19:23.175Z,6.07
2023-03-06T09:22:12.244Z,6.80
2023-03-06T09:25:01.186Z,7.40
2023-03-06T09:28:01.731Z,6.70
2023-03-06T09:30:55.495Z,6.22
2023-03-06T09:33:44.753Z,5.53
2023-03-06T09:36:45.694Z,7.53
2023-03-06T09:39:42.246Z,6.53
2023-03-06T09:42:31.100Z,6.63
2023-03-06T09:45:21.255Z,6.10
2023-03-06T09:48:15.341Z,6.32
2023-03-06T09:51:07.040Z,6.68
2023-03-06T09:54:00.703Z,6.45
2023-03-06T09:56:50.779Z,6.07
2023-03-06T09:59:41.813Z,5.03
2023-03-06T10:02:34.912Z,6.97
2023-03-06T10:05:26.250Z,5.45
2023-03-06T10:08:21.493Z,6.18
2023-03-06T10:11:11.822Z,5.60
2023-03-06T10:14:09.244Z,5.78
2023-03-06T10:16:58.541Z,6.57
2023-03-06T10:19:47.750Z,5.65
2023-03-06T10:22:40.284Z,5.82
2023-03-06T10:25:29.504Z,6.28
2023-03-06T10:28:19.911Z,6.50
2023-03-06T10:31:11.258Z,7.45
2023-03-06T10:34:00.660Z,5.53
2023-03-06T10:36:49.463Z,4.57
2023-03-06T10:39:41.317Z,4.65
2023-03-06T10:42:30.040Z,4.97
2023-03-06T10:45:19.281Z,4.57
2023-03-06T10:48:12.974Z,4.28
2023-03-06T10:51:18.014Z,3.90
2023-03-06T10:54:20.460Z,4.13
2023-03-06T10:57:27.385Z,4.00
2023-03-06T11:00:25.565Z,4.45
2023-03-06T11:03:22.452Z,3.80
2023-03-06T11:06:13.272Z,4.22
2023-03-06T11:09:15.811Z,4.93
2023-03-06T11:12:21.134Z,3.65
2023-03-06T11:15:24.455Z,4.22
2023-03-06T11:18:28.528Z,3.70
2023-03-06T11:21:30.343Z,5.70
2023-03-06T11:24:21.417Z,7.78
2023-03-06T11:27:19.340Z,8.30
2023-03-06T11:30:12.251Z,10.98
2023-03-06T11:33:05.051Z,7.45
2023-03-06T11:35:56.296Z,8.25
2023-03-06T11:38:48.994Z,6.63
2023-03-06T11:41:40.353Z,8.23
2023-03-06T11:44:34.601Z,6.50
2023-03-06T11:47:25.923Z,6.80
2023-03-06T11:50:19.430Z,6.43
2023-03-06T11:53:09.099Z,6.75
2023-03-06T11:56:01.215Z,6.90
2023-03-06T11:58:59.502Z,9.02
2023-03-06T12:01:51.880Z,9.80
2023-03-06T12:04:48.334Z,9.02
2023-03-06T12:07:42.971Z,5.93
2023-03-06T12:10:35.239Z,4.33
2023-03-06T12:13:38.417Z,3.27
2023-03-06T12:16:34.198Z,3.28
2023-03-06T12:19:31.810Z,5.45
2023-03-06T12:22:30.793Z,6.45
2023-03-06T12:25:31.023Z,5.30
2023-03-06T12:28:31.940Z,5.20
2023-03-06T12:31:35.560Z,5.50
2023-03-06T12:35:03.119Z,9.32
2023-03-06T12:37:58.360Z,5.25
2023-03-06T12:41:03.551Z,5.90
2023-03-06T12:44:20.874Z,4.28
2023-03-06T12:47:11.601Z,3.40
2023-03-06T12:50:03.871Z,3.20
2023-03-06T12:52:54.434Z,3.60
2023-03-06T12:55:46.047Z,3.83
2023-03-06T12:58:53.564Z,3.30
2023-03-06T13:02:05.353Z,3.70
2023-03-06T13:05:13.467Z,4.50
2023-03-06T13:08:10.129Z,4.13
2023-03-06T13:11:16.241Z,4.43
2023-03-06T14:29:46.618Z,3.08
2023-03-06T14:32:35.209Z,3.50
2023-03-06T14:35:26.118Z,3.00
2023-03-06T14:38:16.292Z,3.50
2023-03-06T14:41:06.644Z,3.50
2023-03-06T14:44:08.820Z,3.30
2023-03-06T14:47:12.537Z,3.10
2023-03-06T14:50:21.752Z,3.35
2023-03-06T14:53:17.504Z,3.28
2023-03-06T14:56:07.195Z,3.40
2023-03-06T14:58:57.464Z,3.20
2023-03-06T15:01:47.709Z,3.30
2023-03-06T15:04:41.254Z,3.20
2023-03-06T15:07:31.473Z,3.08
2023-03-06T15:10:24.926Z,2.97
2023-03-06T15:13:22.108Z,3.05
2023-03-06T15:16:24.261Z,2.80
2023-03-06T15:19:18.886Z,2.80
2023-03-06T15:22:21.766Z,2.73
2023-03-06T15:25:26.707Z,2.47
2023-03-06T15:28:26.850Z,2.95
2023-03-06T15:31:20.590Z,2.72
2023-03-06T15:34:18.617Z,3.03
2023-03-06T15:37:27.587Z,2.60
2023-03-06T15:40:19.403Z,4.72
2023-03-06T15:43:12.251Z,2.72
2023-03-06T15:46:02.161Z,2.97
2023-03-06T15:48:54.871Z,3.20
2023-03-06T15:51:43.780Z,2.78
2023-03-06T15:54:33.756Z,2.83
2023-03-06T15:57:25.338Z,3.00
2023-03-06T16:00:27.644Z,2.70
2023-03-06T16:03:16.788Z,3.05
2023-03-06T16:06:05.446Z,2.97
2023-03-06T16:08:54.839Z,2.35
2023-03-06T16:11:46.715Z,2.65
2023-03-06T16:14:35.307Z,2.38
2023-03-06T16:17:23.803Z,2.50
2023-03-06T16:20:15.536Z,2.90
2023-03-06T16:23:10.306Z,2.70
2023-03-06T16:25:58.905Z,3.38
2023-03-06T16:28:48.761Z,2.90
2023-03-06T16:31:37.180Z,3.10
2023-03-06T16:34:25.931Z,2.87
2023-03-06T16:37:15.331Z,2.80
2023-03-06T16:40:06.889Z,2.50
2023-03-06T16:42:55.386Z,2.50
2023-03-06T16:45:45.511Z,2.97
2023-03-06T16:48:34.459Z,3.20
2023-03-06T16:51:24.161Z,3.22
2023-03-06T16:54:12.951Z,2.90
2023-03-06T16:57:01.517Z,2.85
2023-03-06T16:59:50.023Z,4.35
2023-03-06T17:02:40.082Z,3.17
2023-03-06T17:05:28.702Z,3.10
2023-03-06T17:08:17.131Z,2.80
2023-03-06T17:11:07.021Z,2.80
2023-03-06T17:13:55.837Z,2.83
2023-03-06T17:16:45.667Z,3.40
2023-03-06T17:19:35.544Z,3.13
2023-03-06T17:22:24.240Z,2.78
2023-03-06T17:25:13.173Z,2.80
2023-03-06T17:28:01.924Z,3.05
2023-03-06T17:30:50.540Z,2.90
2023-03-06T17:33:39.026Z,2.60
2023-03-06T17:36:30.604Z,2.67
2023-03-06T17:39:19.782Z,2.95
2023-03-06T17:42:08.841Z,3.03
2023-03-06T17:44:57.435Z,3.05
2023-03-06T17:47:48.021Z,2.67
2023-03-06T17:50:37.490Z,2.65
2023-03-06T17:53:28.047Z,2.70
2023-03-06T17:56:16.959Z,2.70
2023-03-06T17:59:05.452Z,2.80
2023-03-06T18:01:53.969Z,3.03
2023-03-06T18:04:42.558Z,3.10
2023-03-06T18:07:31.035Z,3.85
2023-03-06T18:10:21.210Z,2.53
2023-03-06T18:13:10.331Z,3.23
2023-03-06T18:15:58.946Z,2.97
2023-03-06T18:18:47.571Z,3.10
2023-03-06T18:21:36.035Z,2.60
2023-03-06T18:24:24.506Z,2.92
2023-03-06T18:27:14.362Z,2.78
2023-03-06T18:30:03.331Z,3.10
2023-03-06T18:32:51.774Z,2.85
2023-03-06T18:35:40.740Z,3.13
2023-03-06T18:38:29.184Z,2.97
2023-03-06T18:41:18.459Z,2.92
2023-03-06T18:44:08.659Z,3.20
2023-03-06T18:46:57.102Z,3.10
2023-03-06T18:49:46.341Z,3.10
2023-03-06T18:52:35.591Z,3.65
2023-03-06T18:55:24.066Z,3.60
2023-03-06T18:58:12.513Z,4.50
2023-03-06T19:01:07.178Z,35.72
2023-03-06T19:03:55.688Z,10.00
2023-03-06T19:06:44.245Z,4.57
2023-03-06T19:09:32.710Z,3.97
2023-03-06T19:15:35.508Z,4.13
2023-03-06T19:18:26.905Z,5.55
2023-03-06T19:21:16.987Z,4.10
2023-03-06T19:24:06.799Z,3.30
2023-03-06T19:26:55.215Z,3.38
2023-03-06T19:29:43.630Z,3.75
2023-03-06T19:32:32.189Z,3.90
2023-03-06T19:35:22.188Z,3.53
2023-03-06T19:38:11.064Z,3.10
2023-03-06T19:41:00.507Z,3.20
2023-03-06T19:43:52.280Z,3.10
2023-03-06T19:46:40.810Z,4.13
2023-03-06T19:49:29.299Z,4.05
2023-03-06T19:52:19.275Z,2.83
2023-03-06T19:55:09.639Z,3.00
2023-03-06T19:57:58.390Z,3.28
2023-03-06T20:00:46.865Z,3.38
2023-03-06T20:03:35.355Z,3.90
2023-03-06T20:06:23.901Z,3.50
2023-03-06T20:09:13.824Z,3.00
2023-03-06T20:12:03.013Z,2.80
2023-03-06T20:14:51.739Z,3.20
2023-03-06T20:17:41.156Z,3.13
2023-03-06T20:20:29.954Z,4.57
2023-03-06T20:23:18.374Z,4.37
2023-03-06T20:26:11.905Z,5.25
2023-03-06T20:29:00.355Z,5.13
2023-03-06T20:31:48.937Z,5.00
2023-03-06T20:34:38.987Z,4.65
2023-03-06T20:37:27.450Z,5.47
2023-03-06T20:40:16.265Z,4.35
2023-03-06T20:43:06.358Z,4.75
2023-03-06T20:45:59.322Z,5.60
2023-03-06T20:48:50.146Z,4.32
2023-03-06T20:51:40.138Z,4.93
2023-03-06T20:54:28.648Z,5.07
2023-03-06T20:57:17.128Z,6.50
2023-03-06T21:00:08.781Z,5.25
2023-03-06T21:02:57.238Z,5.88
2023-03-06T21:05:47.501Z,7.20
2023-03-06T21:08:35.955Z,6.68
2023-03-06T21:11:24.423Z,6.43
2023-03-06T21:14:14.434Z,5.85
2023-03-06T21:17:04.300Z,5.63
2023-03-06T21:19:52.822Z,6.00
2023-03-06T21:22:41.280Z,4.80
2023-03-06T21:25:29.872Z,5.20
2023-03-06T21:28:19.576Z,5.95
2023-03-06T21:31:09.265Z,5.00
2023-03-06T21:33:59.773Z,5.03
2023-03-06T21:36:48.227Z,7.07
2023-03-06T21:39:36.742Z,7.72
2023-03-06T21:42:25.257Z,7.97
2023-03-06T21:45:13.685Z,8.88
2023-03-06T21:48:02.249Z,7.03
2023-03-06T21:50:52.086Z,5.25
2023-03-06T21:53:42.992Z,5.70
2023-03-06T21:56:33.275Z,5.72
2023-03-06T21:59:22.174Z,6.43
2023-03-06T22:02:11.675Z,5.63
2023-03-06T22:05:00.110Z,6.22
2023-03-06T22:07:49.954Z,5.88
2023-03-06T22:10:39.876Z,5.72
2023-03-06T22:13:28.331Z,7.22
2023-03-06T22:16:17.387Z,5.70
2023-03-06T22:19:06.001Z,5.93
2023-03-06T22:21:54.371Z,6.77
2023-03-06T22:24:44.157Z,8.15
2023-03-06T22:27:32.837Z,7.47
2023-03-06T22:30:21.534Z,6.30
2023-03-06T22:33:10.014Z,6.65
2023-03-06T22:36:05.304Z,8.48
2023-03-06T22:38:55.861Z,6.95
2023-03-06T22:41:45.785Z,7.32
2023-03-06T22:44:34.230Z,9.18
2023-03-06T22:47:22.683Z,7.55
2023-03-06T22:50:12.507Z,7.33
2023-03-06T22:53:01.245Z,7.60
2023-03-06T22:55:49.699Z,7.50
2023-03-06T22:58:40.252Z,6.75
2023-03-06T23:01:30.307Z,8.05
2023-03-06T23:04:18.801Z,8.68
2023-03-06T23:07:07.269Z,7.65
2023-03-06T23:09:55.954Z,7.32
2023-03-06T23:12:44.375Z,8.85
2023-03-06T23:15:36.523Z,7.15
2023-03-06T23:18:25.039Z,7.47
2023-03-06T23:21:15.253Z,6.78
2023-03-06T23:24:04.340Z,6.32
2023-03-06T23:26:52.739Z,6.20
2023-03-06T23:29:41.139Z,6.82
2023-03-06T23:32:32.608Z,7.00
2023-03-06T23:35:21.195Z,6.90
2023-03-06T23:38:09.643Z,7.65
2023-03-06T23:41:02.270Z,6.93
2023-03-06T23:43:54.040Z,6.88
2023-03-06T23:46:43.641Z,6.70
2023-03-06T23:49:33.504Z,7.10
2023-03-06T23:52:21.961Z,7.05
2023-03-06T23:55:10.944Z,6.60
2023-03-06T23:57:59.404Z,7.70
